sensor_id;sensor_type;location;lat;lon;timestamp;P1;durP1;ratioP1;P2;durP2;ratioP2
16612;SDS011;8419;52.358;9.752;2023-06-22T00:01:25;10.27;;;7.32;;
16612;SDS011;8419;52.358;9.752;2023-06-22T00:04:10;8.85;;;6.57;;
16612;SDS011;8419;52.358;9.752;2023-06-22T00:06:56;8.80;;;7.47;;
16612;SDS011;8419;52.358;9.752;2023-06-22T00:09:41;9.23;;;7.60;;
16612;SDS011;8419;52.358;9.752;2023-06-22T00:12:28;9.60;;;7.47;;
16612;SDS011;8419;52.358;9.752;2023-06-22T00:15:13;7.57;;;6.75;;
16612;SDS011;8419;52.358;9.752;2023-06-22T00:17:59;9.02;;;8.13;;
16612;SDS011;8419;52.358;9.752;2023-06-22T00:20:45;9.75;;;7.93;;
16612;SDS011;8419;52.358;9.752;2023-06-22T00:23:31;8.27;;;7.47;;
16612;SDS011;8419;52.358;9.752;2023-06-22T00:26:19;11.77;;;8.07;;
16612;SDS011;8419;52.358;9.752;2023-06-22T00:29:04;11.18;;;8.93;;
16612;SDS011;8419;52.358;9.752;2023-06-22T00:31:50;10.25;;;9.00;;
16612;SDS011;8419;52.358;9.752;2023-06-22T00:34:36;14.25;;;9.40;;
16612;SDS011;8419;52.358;9.752;2023-06-22T00:37:21;12.60;;;10.85;;
16612;SDS011;8419;52.358;9.752;2023-06-22T00:40:10;11.55;;;10.35;;
16612;SDS011;8419;52.358;9.752;2023-06-22T00:42:57;13.62;;;10.55;;
16612;SDS011;8419;52.358;9.752;2023-06-22T00:45:43;11.68;;;10.50;;
16612;SDS011;8419;52.358;9.752;2023-06-22T00:48:29;12.55;;;10.23;;
16612;SDS011;8419;52.358;9.752;2023-06-22T00:51:14;11.70;;;10.50;;
16612;SDS011;8419;52.358;9.752;2023-06-22T00:54:01;11.68;;;10.07;;
16612;SDS011;8419;52.358;9.752;2023-06-22T00:56:46;10.65;;;9.63;;
16612;SDS011;8419;52.358;9.752;2023-06-22T00:59:32;12.37;;;10.63;;
16612;SDS011;8419;52.358;9.752;2023-06-22T01:02:18;11.05;;;9.90;;
16612;SDS011;8419;52.358;9.752;2023-06-22T01:05:04;10.60;;;9.57;;
16612;SDS011;8419;52.358;9.752;2023-06-22T01:07:55;11.65;;;9.80;;
16612;SDS011;8419;52.358;9.752;2023-06-22T01:10:50;12.05;;;10.85;;
16612;SDS011;8419;52.358;9.752;2023-06-22T01:13:40;11.45;;;9.70;;
16612;SDS011;8419;52.358;9.752;2023-06-22T01:16:31;10.68;;;9.18;;
16612;SDS011;8419;52.358;9.752;2023-06-22T01:19:29;10.27;;;9.27;;
16612;SDS011;8419;52.358;9.752;2023-06-22T01:22:28;10.68;;;8.90;;
16612;SDS011;8419;52.358;9.752;2023-06-22T01:25:18;11.12;;;9.38;;
16612;SDS011;8419;52.358;9.752;2023-06-22T01:28:18;10.70;;;9.60;;
16612;SDS011;8419;52.358;9.752;2023-06-22T01:31:17;10.73;;;9.70;;
16612;SDS011;8419;52.358;9.752;2023-06-22T01:34:05;11.95;;;9.60;;
16612;SDS011;8419;52.358;9.752;2023-06-22T01:36:52;10.23;;;9.15;;
16612;SDS011;8419;52.358;9.752;2023-06-22T01:39:38;11.00;;;8.93;;
16612;SDS011;8419;52.358;9.752;2023-06-22T01:42:25;12.00;;;9.93;;
16612;SDS011;8419;52.358;9.752;2023-06-22T01:45:11;10.60;;;9.50;;
16612;SDS011;8419;52.358;9.752;2023-06-22T01:47:57;10.55;;;9.45;;
16612;SDS011;8419;52.358;9.752;2023-06-22T01:50:44;12.05;;;9.43;;
16612;SDS011;8419;52.358;9.752;2023-06-22T01:53:30;11.45;;;10.25;;
16612;SDS011;8419;52.358;9.752;2023-06-22T01:56:17;10.63;;;9.52;;
16612;SDS011;8419;52.358;9.752;2023-06-22T01:59:04;11.07;;;8.98;;
16612;SDS011;8419;52.358;9.752;2023-06-22T02:01:57;10.77;;;9.40;;
16612;SDS011;8419;52.358;9.752;2023-06-22T02:04:47;10.02;;;9.02;;
16612;SDS011;8419;52.358;9.752;2023-06-22T02:07:41;10.20;;;9.13;;
16612;SDS011;8419;52.358;9.752;2023-06-22T02:10:31;12.37;;;9.70;;
16612;SDS011;8419;52.358;9.752;2023-06-22T02:13:17;11.90;;;9.38;;
16612;SDS011;8419;52.358;9.752;2023-06-22T02:16:04;11.75;;;10.40;;
16612;SDS011;8419;52.358;9.752;2023-06-22T02:18:50;11.23;;;8.88;;
16612;SDS011;8419;52.358;9.752;2023-06-22T02:21:36;11.05;;;9.15;;
16612;SDS011;8419;52.358;9.752;2023-06-22T02:24:22;10.20;;;9.10;;
16612;SDS011;8419;52.358;9.752;2023-06-22T02:27:08;9.80;;;8.43;;
16612;SDS011;8419;52.358;9.752;2023-06-22T02:29:54;10.00;;;8.93;;
16612;SDS011;8419;52.358;9.752;2023-06-22T02:32:41;10.27;;;9.13;;
16612;SDS011;8419;52.358;9.752;2023-06-22T02:35:26;10.38;;;9.15;;
16612;SDS011;8419;52.358;9.752;2023-06-22T02:38:15;9.75;;;8.75;;
16612;SDS011;8419;52.358;9.752;2023-06-22T02:41:02;10.27;;;9.18;;
16612;SDS011;8419;52.358;9.752;2023-06-22T02:43:47;11.70;;;8.35;;
16612;SDS011;8419;52.358;9.752;2023-06-22T02:46:33;10.13;;;8.95;;
16612;SDS011;8419;52.358;9.752;2023-06-22T02:49:18;10.90;;;8.63;;
16612;SDS011;8419;52.358;9.752;2023-06-22T02:52:04;11.93;;;8.77;;
16612;SDS011;8419;52.358;9.752;2023-06-22T02:54:52;10.43;;;9.05;;
16612;SDS011;8419;52.358;9.752;2023-06-22T02:57:38;10.57;;;8.98;;
16612;SDS011;8419;52.358;9.752;2023-06-22T03:00:27;13.75;;;9.23;;
16612;SDS011;8419;52.358;9.752;2023-06-22T03:03:14;9.48;;;8.32;;
16612;SDS011;8419;52.358;9.752;2023-06-22T03:06:00;9.43;;;8.52;;
16612;SDS011;8419;52.358;9.752;2023-06-22T03:08:45;11.70;;;9.02;;
16612;SDS011;8419;52.358;9.752;2023-06-22T03:11:31;10.00;;;8.77;;
16612;SDS011;8419;52.358;9.752;2023-06-22T03:14:17;9.57;;;8.57;;
16612;SDS011;8419;52.358;9.752;2023-06-22T03:17:03;9.00;;;8.02;;
16612;SDS011;8419;52.358;9.752;2023-06-22T03:19:49;12.68;;;9.30;;
16612;SDS011;8419;52.358;9.752;2023-06-22T03:22:34;13.80;;;8.40;;
16612;SDS011;8419;52.358;9.752;2023-06-22T03:25:20;9.95;;;8.93;;
16612;SDS011;8419;52.358;9.752;2023-06-22T03:28:05;9.70;;;8.70;;
16612;SDS011;8419;52.358;9.752;2023-06-22T03:30:51;9.98;;;8.98;;
16612;SDS011;8419;52.358;9.752;2023-06-22T03:33:37;12.55;;;9.55;;
16612;SDS011;8419;52.358;9.752;2023-06-22T03:36:22;10.05;;;9.05;;
16612;SDS011;8419;52.358;9.752;2023-06-22T03:39:08;12.52;;;8.90;;
16612;SDS011;8419;52.358;9.752;2023-06-22T03:41:53;10.73;;;9.23;;
16612;SDS011;8419;52.358;9.752;2023-06-22T03:44:39;11.77;;;8.82;;
16612;SDS011;8419;52.358;9.752;2023-06-22T03:47:25;13.15;;;9.30;;
16612;SDS011;8419;52.358;9.752;2023-06-22T03:50:10;10.35;;;9.13;;
16612;SDS011;8419;52.358;9.752;2023-06-22T03:52:57;14.57;;;8.68;;
16612;SDS011;8419;52.358;9.752;2023-06-22T03:55:48;12.43;;;10.07;;
16612;SDS011;8419;52.358;9.752;2023-06-22T03:58:37;11.02;;;8.80;;
16612;SDS011;8419;52.358;9.752;2023-06-22T04:01:27;11.07;;;9.55;;
16612;SDS011;8419;52.358;9.752;2023-06-22T04:04:12;9.88;;;8.82;;
16612;SDS011;8419;52.358;9.752;2023-06-22T04:06:58;11.38;;;9.27;;
16612;SDS011;8419;52.358;9.752;2023-06-22T04:09:43;10.52;;;9.43;;
16612;SDS011;8419;52.358;9.752;2023-06-22T04:12:28;11.38;;;9.15;;
16612;SDS011;8419;52.358;9.752;2023-06-22T04:15:14;12.30;;;9.85;;
16612;SDS011;8419;52.358;9.752;2023-06-22T04:18:00;10.02;;;8.38;;
16612;SDS011;8419;52.358;9.752;2023-06-22T04:20:46;9.65;;;8.65;;
16612;SDS011;8419;52.358;9.752;2023-06-22T04:23:31;11.88;;;9.60;;
16612;SDS011;8419;52.358;9.752;2023-06-22T04:26:17;10.70;;;9.32;;
16612;SDS011;8419;52.358;9.752;2023-06-22T04:29:05;12.80;;;10.13;;
16612;SDS011;8419;52.358;9.752;2023-06-22T04:31:50;9.98;;;8.55;;
16612;SDS011;8419;52.358;9.752;2023-06-22T04:34:37;11.40;;;8.50;;
16612;SDS011;8419;52.358;9.752;2023-06-22T04:37:24;9.95;;;8.95;;
16612;SDS011;8419;52.358;9.752;2023-06-22T04:40:11;9.88;;;8.88;;
16612;SDS011;8419;52.358;9.752;2023-06-22T04:42:59;9.80;;;8.80;;
16612;SDS011;8419;52.358;9.752;2023-06-22T04:45:46;10.82;;;9.73;;
16612;SDS011;8419;52.358;9.752;2023-06-22T04:48:37;11.15;;;8.15;;
16612;SDS011;8419;52.358;9.752;2023-06-22T04:51:22;10.02;;;8.88;;
16612;SDS011;8419;52.358;9.752;2023-06-22T04:54:13;9.70;;;8.70;;
16612;SDS011;8419;52.358;9.752;2023-06-22T04:56:59;10.50;;;9.30;;
16612;SDS011;8419;52.358;9.752;2023-06-22T04:59:45;9.07;;;8.18;;
16612;SDS011;8419;52.358;9.752;2023-06-22T05:02:31;10.23;;;8.23;;
16612;SDS011;8419;52.358;9.752;2023-06-22T05:05:17;15.65;;;9.27;;
16612;SDS011;8419;52.358;9.752;2023-06-22T05:08:03;9.38;;;8.35;;
16612;SDS011;8419;52.358;9.752;2023-06-22T05:10:51;9.98;;;8.15;;
16612;SDS011;8419;52.358;9.752;2023-06-22T05:13:36;13.70;;;8.40;;
16612;SDS011;8419;52.358;9.752;2023-06-22T05:16:22;9.65;;;8.65;;
16612;SDS011;8419;52.358;9.752;2023-06-22T05:19:11;11.73;;;8.68;;
16612;SDS011;8419;52.358;9.752;2023-06-22T05:21:56;9.50;;;8.30;;
16612;SDS011;8419;52.358;9.752;2023-06-22T05:24:42;12.25;;;8.18;;
16612;SDS011;8419;52.358;9.752;2023-06-22T05:27:28;13.05;;;9.07;;
16612;SDS011;8419;52.358;9.752;2023-06-22T05:30:13;13.15;;;8.77;;
16612;SDS011;8419;52.358;9.752;2023-06-22T05:33:00;11.75;;;8.23;;
16612;SDS011;8419;52.358;9.752;2023-06-22T05:35:46;14.25;;;8.98;;
16612;SDS011;8419;52.358;9.752;2023-06-22T05:38:31;11.70;;;8.75;;
16612;SDS011;8419;52.358;9.752;2023-06-22T05:41:17;10.38;;;7.97;;
16612;SDS011;8419;52.358;9.752;2023-06-22T05:44:04;10.25;;;8.70;;
16612;SDS011;8419;52.358;9.752;2023-06-22T05:46:49;12.60;;;7.87;;
16612;SDS011;8419;52.358;9.752;2023-06-22T05:49:35;10.57;;;7.70;;
16612;SDS011;8419;52.358;9.752;2023-06-22T05:52:21;16.27;;;8.10;;
16612;SDS011;8419;52.358;9.752;2023-06-22T05:55:08;9.05;;;7.78;;
16612;SDS011;8419;52.358;9.752;2023-06-22T05:57:54;14.32;;;7.57;;
16612;SDS011;8419;52.358;9.752;2023-06-22T06:00:40;10.52;;;7.35;;
16612;SDS011;8419;52.358;9.752;2023-06-22T06:03:27;13.25;;;7.85;;
16612;SDS011;8419;52.358;9.752;2023-06-22T06:06:13;13.10;;;6.80;;
16612;SDS011;8419;52.358;9.752;2023-06-22T06:08:59;9.18;;;7.32;;
16612;SDS011;8419;52.358;9.752;2023-06-22T06:11:44;9.18;;;6.97;;
16612;SDS011;8419;52.358;9.752;2023-06-22T06:14:32;11.50;;;7.15;;
16612;SDS011;8419;52.358;9.752;2023-06-22T06:17:18;12.77;;;7.47;;
16612;SDS011;8419;52.358;9.752;2023-06-22T06:20:05;13.25;;;6.57;;
16612;SDS011;8419;52.358;9.752;2023-06-22T06:22:52;10.60;;;6.87;;
16612;SDS011;8419;52.358;9.752;2023-06-22T06:25:38;13.93;;;6.72;;
16612;SDS011;8419;52.358;9.752;2023-06-22T06:28:24;12.27;;;6.72;;
16612;SDS011;8419;52.358;9.752;2023-06-22T06:31:10;8.75;;;6.03;;
16612;SDS011;8419;52.358;9.752;2023-06-22T06:33:56;12.37;;;6.50;;
16612;SDS011;8419;52.358;9.752;2023-06-22T06:36:42;13.20;;;6.25;;
16612;SDS011;8419;52.358;9.752;2023-06-22T06:39:28;8.30;;;6.90;;
16612;SDS011;8419;52.358;9.752;2023-06-22T06:42:14;13.40;;;6.75;;
16612;SDS011;8419;52.358;9.752;2023-06-22T06:44:59;10.70;;;6.55;;
16612;SDS011;8419;52.358;9.752;2023-06-22T06:47:45;7.45;;;5.80;;
16612;SDS011;8419;52.358;9.752;2023-06-22T06:50:31;11.45;;;5.45;;
16612;SDS011;8419;52.358;9.752;2023-06-22T06:53:17;10.07;;;5.97;;
16612;SDS011;8419;52.358;9.752;2023-06-22T06:56:02;8.48;;;5.85;;
16612;SDS011;8419;52.358;9.752;2023-06-22T06:58:50;13.62;;;6.12;;
16612;SDS011;8419;52.358;9.752;2023-06-22T07:01:36;9.20;;;5.53;;
16612;SDS011;8419;52.358;9.752;2023-06-22T07:04:21;8.25;;;5.35;;
16612;SDS011;8419;52.358;9.752;2023-06-22T07:07:07;9.45;;;5.28;;
16612;SDS011;8419;52.358;9.752;2023-06-22T07:09:52;12.93;;;5.60;;
16612;SDS011;8419;52.358;9.752;2023-06-22T07:12:38;7.28;;;5.25;;
16612;SDS011;8419;52.358;9.752;2023-06-22T07:15:24;6.87;;;5.05;;
16612;SDS011;8419;52.358;9.752;2023-06-22T07:18:09;5.90;;;4.32;;
16612;SDS011;8419;52.358;9.752;2023-06-22T07:20:55;7.20;;;4.87;;
16612;SDS011;8419;52.358;9.752;2023-06-22T07:23:41;5.90;;;4.85;;
16612;SDS011;8419;52.358;9.752;2023-06-22T07:26:26;6.90;;;4.35;;
16612;SDS011;8419;52.358;9.752;2023-06-22T07:29:12;7.50;;;5.03;;
16612;SDS011;8419;52.358;9.752;2023-06-22T07:31:58;10.88;;;5.22;;
16612;SDS011;8419;52.358;9.752;2023-06-22T07:34:45;5.30;;;4.40;;
16612;SDS011;8419;52.358;9.752;2023-06-22T07:37:30;7.65;;;4.95;;
16612;SDS011;8419;52.358;9.752;2023-06-22T07:40:17;11.57;;;5.20;;
16612;SDS011;8419;52.358;9.752;2023-06-22T07:43:03;8.20;;;5.03;;
16612;SDS011;8419;52.358;9.752;2023-06-22T07:45:48;6.20;;;5.15;;
16612;SDS011;8419;52.358;9.752;2023-06-22T07:48:37;5.43;;;4.70;;
16612;SDS011;8419;52.358;9.752;2023-06-22T07:51:26;7.05;;;4.90;;
16612;SDS011;8419;52.358;9.752;2023-06-22T07:54:11;5.47;;;4.72;;
16612;SDS011;8419;52.358;9.752;2023-06-22T07:56:56;12.80;;;5.65;;
16612;SDS011;8419;52.358;9.752;2023-06-22T07:59:42;7.37;;;5.25;;
16612;SDS011;8419;52.358;9.752;2023-06-22T08:02:27;5.90;;;4.95;;
16612;SDS011;8419;52.358;9.752;2023-06-22T08:05:13;8.20;;;5.20;;
16612;SDS011;8419;52.358;9.752;2023-06-22T08:07:59;8.35;;;5.20;;
16612;SDS011;8419;52.358;9.752;2023-06-22T08:10:45;6.25;;;4.75;;
16612;SDS011;8419;52.358;9.752;2023-06-22T08:13:31;6.30;;;5.05;;
16612;SDS011;8419;52.358;9.752;2023-06-22T08:16:16;8.18;;;5.10;;
16612;SDS011;8419;52.358;9.752;2023-06-22T08:19:02;7.22;;;4.82;;
16612;SDS011;8419;52.358;9.752;2023-06-22T08:21:48;8.05;;;5.35;;
16612;SDS011;8419;52.358;9.752;2023-06-22T08:24:33;8.48;;;5.55;;
16612;SDS011;8419;52.358;9.752;2023-06-22T08:27:19;11.20;;;5.75;;
16612;SDS011;8419;52.358;9.752;2023-06-22T08:30:06;8.25;;;5.47;;
16612;SDS011;8419;52.358;9.752;2023-06-22T08:32:55;8.05;;;5.93;;
16612;SDS011;8419;52.358;9.752;2023-06-22T08:35:40;9.63;;;5.80;;
16612;SDS011;8419;52.358;9.752;2023-06-22T08:38:26;6.80;;;6.10;;
16612;SDS011;8419;52.358;9.752;2023-06-22T08:41:11;7.12;;;5.95;;
16612;SDS011;8419;52.358;9.752;2023-06-22T08:43:57;7.30;;;6.03;;
16612;SDS011;8419;52.358;9.752;2023-06-22T08:46:43;6.87;;;5.47;;
16612;SDS011;8419;52.358;9.752;2023-06-22T08:49:29;7.87;;;5.37;;
16612;SDS011;8419;52.358;9.752;2023-06-22T08:52:15;8.63;;;5.75;;
16612;SDS011;8419;52.358;9.752;2023-06-22T08:55:01;7.95;;;5.65;;
16612;SDS011;8419;52.358;9.752;2023-06-22T08:57:47;8.73;;;5.30;;
16612;SDS011;8419;52.358;9.752;2023-06-22T09:00:33;7.55;;;5.62;;
16612;SDS011;8419;52.358;9.752;2023-06-22T09:03:19;7.32;;;5.43;;
16612;SDS011;8419;52.358;9.752;2023-06-22T09:06:05;8.65;;;6.37;;
16612;SDS011;8419;52.358;9.752;2023-06-22T09:08:50;11.43;;;6.47;;
16612;SDS011;8419;52.358;9.752;2023-06-22T09:11:36;7.65;;;5.90;;
16612;SDS011;8419;52.358;9.752;2023-06-22T09:14:21;7.32;;;5.68;;
16612;SDS011;8419;52.358;9.752;2023-06-22T09:17:08;7.70;;;5.43;;
16612;SDS011;8419;52.358;9.752;2023-06-22T09:19:53;8.05;;;5.78;;
16612;SDS011;8419;52.358;9.752;2023-06-22T09:22:39;7.35;;;6.03;;
16612;SDS011;8419;52.358;9.752;2023-06-22T09:25:24;8.52;;;6.10;;
16612;SDS011;8419;52.358;9.752;2023-06-22T09:28:10;9.95;;;7.00;;
16612;SDS011;8419;52.358;9.752;2023-06-22T09:30:55;9.75;;;6.82;;
16612;SDS011;8419;52.358;9.752;2023-06-22T09:33:43;7.05;;;5.72;;
16612;SDS011;8419;52.358;9.752;2023-06-22T09:36:28;6.95;;;6.22;;
16612;SDS011;8419;52.358;9.752;2023-06-22T09:39:14;11.60;;;6.68;;
16612;SDS011;8419;52.358;9.752;2023-06-22T09:41:59;8.65;;;7.37;;
16612;SDS011;8419;52.358;9.752;2023-06-22T09:44:45;8.43;;;6.80;;
16612;SDS011;8419;52.358;9.752;2023-06-22T09:47:31;10.32;;;7.28;;
16612;SDS011;8419;52.358;9.752;2023-06-22T09:50:16;10.13;;;7.62;;
16612;SDS011;8419;52.358;9.752;2023-06-22T09:53:02;10.93;;;7.60;;
16612;SDS011;8419;52.358;9.752;2023-06-22T09:55:48;10.60;;;7.75;;
16612;SDS011;8419;52.358;9.752;2023-06-22T09:58:33;19.02;;;8.95;;
16612;SDS011;8419;52.358;9.752;2023-06-22T10:01:19;9.57;;;8.48;;
16612;SDS011;8419;52.358;9.752;2023-06-22T10:04:05;10.88;;;8.40;;
16612;SDS011;8419;52.358;9.752;2023-06-22T10:06:51;10.40;;;8.10;;
16612;SDS011;8419;52.358;9.752;2023-06-22T10:09:36;10.43;;;8.20;;
16612;SDS011;8419;52.358;9.752;2023-06-22T10:12:22;13.00;;;8.63;;
16612;SDS011;8419;52.358;9.752;2023-06-22T10:15:08;10.30;;;8.90;;
16612;SDS011;8419;52.358;9.752;2023-06-22T10:17:55;10.45;;;9.32;;
16612;SDS011;8419;52.358;9.752;2023-06-22T10:20:42;11.43;;;9.27;;
16612;SDS011;8419;52.358;9.752;2023-06-22T10:23:27;11.43;;;9.50;;
16612;SDS011;8419;52.358;9.752;2023-06-22T10:26:13;15.02;;;9.75;;
16612;SDS011;8419;52.358;9.752;2023-06-22T10:28:58;11.85;;;9.82;;
16612;SDS011;8419;52.358;9.752;2023-06-22T10:31:44;10.55;;;9.43;;
16612;SDS011;8419;52.358;9.752;2023-06-22T10:34:30;16.50;;;8.60;;
16612;SDS011;8419;52.358;9.752;2023-06-22T10:37:15;12.68;;;9.10;;
16612;SDS011;8419;52.358;9.752;2023-06-22T10:40:01;11.10;;;8.13;;
16612;SDS011;8419;52.358;9.752;2023-06-22T10:42:47;13.73;;;9.05;;
16612;SDS011;8419;52.358;9.752;2023-06-22T10:45:36;15.90;;;12.10;;
16612;SDS011;8419;52.358;9.752;2023-06-22T10:48:23;9.93;;;8.85;;
16612;SDS011;8419;52.358;9.752;2023-06-22T10:51:08;11.05;;;8.85;;
16612;SDS011;8419;52.358;9.752;2023-06-22T10:53:53;11.95;;;8.88;;
16612;SDS011;8419;52.358;9.752;2023-06-22T10:56:39;10.93;;;8.32;;
16612;SDS011;8419;52.358;9.752;2023-06-22T10:59:25;10.75;;;8.60;;
16612;SDS011;8419;52.358;9.752;2023-06-22T11:02:11;12.52;;;9.57;;
16612;SDS011;8419;52.358;9.752;2023-06-22T11:04:56;12.90;;;9.05;;
16612;SDS011;8419;52.358;9.752;2023-06-22T11:07:45;11.82;;;9.20;;
16612;SDS011;8419;52.358;9.752;2023-06-22T11:10:33;12.13;;;9.25;;
16612;SDS011;8419;52.358;9.752;2023-06-22T11:13:18;10.05;;;8.70;;
16612;SDS011;8419;52.358;9.752;2023-06-22T11:16:04;12.52;;;8.82;;
16612;SDS011;8419;52.358;9.752;2023-06-22T11:18:49;9.88;;;8.77;;
16612;SDS011;8419;52.358;9.752;2023-06-22T11:21:37;11.52;;;8.90;;
16612;SDS011;8419;52.358;9.752;2023-06-22T11:24:22;14.13;;;9.20;;
16612;SDS011;8419;52.358;9.752;2023-06-22T11:27:08;10.52;;;8.90;;
16612;SDS011;8419;52.358;9.752;2023-06-22T11:29:54;11.90;;;9.48;;
16612;SDS011;8419;52.358;9.752;2023-06-22T11:32:39;12.02;;;9.50;;
16612;SDS011;8419;52.358;9.752;2023-06-22T11:35:25;14.18;;;9.20;;
16612;SDS011;8419;52.358;9.752;2023-06-22T11:38:11;10.02;;;8.70;;
16612;SDS011;8419;52.358;9.752;2023-06-22T11:40:57;14.07;;;9.30;;
16612;SDS011;8419;52.358;9.752;2023-06-22T11:43:43;16.23;;;9.48;;
16612;SDS011;8419;52.358;9.752;2023-06-22T11:46:29;10.48;;;8.52;;
16612;SDS011;8419;52.358;9.752;2023-06-22T11:49:16;16.45;;;8.98;;
16612;SDS011;8419;52.358;9.752;2023-06-22T11:52:02;11.27;;;8.73;;
16612;SDS011;8419;52.358;9.752;2023-06-22T11:54:48;10.40;;;8.32;;
16612;SDS011;8419;52.358;9.752;2023-06-22T11:57:37;12.30;;;8.30;;
16612;SDS011;8419;52.358;9.752;2023-06-22T12:00:38;11.82;;;8.95;;
16612;SDS011;8419;52.358;9.752;2023-06-22T12:03:24;9.70;;;8.70;;
16612;SDS011;8419;52.358;9.752;2023-06-22T12:06:09;9.02;;;8.13;;
16612;SDS011;8419;52.358;9.752;2023-06-22T12:08:55;11.88;;;8.75;;
16612;SDS011;8419;52.358;9.752;2023-06-22T12:11:40;11.12;;;8.90;;
16612;SDS011;8419;52.358;9.752;2023-06-22T12:14:26;10.88;;;8.55;;
16612;SDS011;8419;52.358;9.752;2023-06-22T12:17:14;11.10;;;7.95;;
16612;SDS011;8419;52.358;9.752;2023-06-22T12:19:59;9.73;;;7.68;;
16612;SDS011;8419;52.358;9.752;2023-06-22T12:22:46;8.38;;;7.43;;
16612;SDS011;8419;52.358;9.752;2023-06-22T12:25:32;11.30;;;7.35;;
16612;SDS011;8419;52.358;9.752;2023-06-22T12:28:17;11.25;;;8.00;;
16612;SDS011;8419;52.358;9.752;2023-06-22T12:31:03;9.05;;;7.18;;
16612;SDS011;8419;52.358;9.752;2023-06-22T12:33:49;10.27;;;7.85;;
16612;SDS011;8419;52.358;9.752;2023-06-22T12:36:34;10.32;;;7.72;;
16612;SDS011;8419;52.358;9.752;2023-06-22T12:39:19;8.70;;;7.80;;
16612;SDS011;8419;52.358;9.752;2023-06-22T12:42:07;10.63;;;7.87;;
16612;SDS011;8419;52.358;9.752;2023-06-22T12:44:53;10.40;;;8.50;;
16612;SDS011;8419;52.358;9.752;2023-06-22T12:47:39;8.77;;;7.87;;
16612;SDS011;8419;52.358;9.752;2023-06-22T12:50:27;9.23;;;7.68;;
16612;SDS011;8419;52.358;9.752;2023-06-22T12:53:13;8.85;;;7.95;;
16612;SDS011;8419;52.358;9.752;2023-06-22T12:55:58;10.70;;;8.65;;
16612;SDS011;8419;52.358;9.752;2023-06-22T12:58:47;11.88;;;9.52;;
16612;SDS011;8419;52.358;9.752;2023-06-22T13:01:37;10.18;;;8.30;;
16612;SDS011;8419;52.358;9.752;2023-06-22T13:04:22;9.73;;;8.52;;
16612;SDS011;8419;52.358;9.752;2023-06-22T13:07:08;11.55;;;8.68;;
16612;SDS011;8419;52.358;9.752;2023-06-22T13:09:56;10.65;;;8.40;;
16612;SDS011;8419;52.358;9.752;2023-06-22T13:12:44;18.08;;;9.25;;
16612;SDS011;8419;52.358;9.752;2023-06-22T13:15:32;10.50;;;9.30;;
16612;SDS011;8419;52.358;9.752;2023-06-22T13:18:18;11.65;;;9.23;;
16612;SDS011;8419;52.358;9.752;2023-06-22T13:21:06;12.00;;;9.10;;
16612;SDS011;8419;52.358;9.752;2023-06-22T13:23:52;12.27;;;9.95;;
16612;SDS011;8419;52.358;9.752;2023-06-22T13:26:37;10.35;;;9.27;;
16612;SDS011;8419;52.358;9.752;2023-06-22T13:29:23;11.25;;;9.98;;
16612;SDS011;8419;52.358;9.752;2023-06-22T13:32:08;13.65;;;10.73;;
16612;SDS011;8419;52.358;9.752;2023-06-22T13:34:54;11.77;;;9.77;;
16612;SDS011;8419;52.358;9.752;2023-06-22T13:37:42;13.52;;;10.75;;
16612;SDS011;8419;52.358;9.752;2023-06-22T13:40:28;14.25;;;10.45;;
16612;SDS011;8419;52.358;9.752;2023-06-22T13:43:16;12.20;;;9.50;;
16612;SDS011;8419;52.358;9.752;2023-06-22T13:46:12;12.60;;;9.90;;
16612;SDS011;8419;52.358;9.752;2023-06-22T13:48:57;12.90;;;9.43;;
16612;SDS011;8419;52.358;9.752;2023-06-22T13:51:43;11.23;;;9.30;;
16612;SDS011;8419;52.358;9.752;2023-06-22T13:54:28;13.27;;;9.13;;
16612;SDS011;8419;52.358;9.752;2023-06-22T13:57:17;11.32;;;9.60;;
16612;SDS011;8419;52.358;9.752;2023-06-22T14:00:03;11.73;;;9.55;;
16612;SDS011;8419;52.358;9.752;2023-06-22T14:02:50;13.65;;;9.20;;
16612;SDS011;8419;52.358;9.752;2023-06-22T14:05:37;11.27;;;9.57;;
16612;SDS011;8419;52.358;9.752;2023-06-22T14:08:22;11.35;;;9.90;;
16612;SDS011;8419;52.358;9.752;2023-06-22T14:11:09;11.90;;;9.63;;
16612;SDS011;8419;52.358;9.752;2023-06-22T14:13:55;14.98;;;10.85;;
16612;SDS011;8419;52.358;9.752;2023-06-22T14:16:41;14.95;;;11.93;;
16612;SDS011;8419;52.358;9.752;2023-06-22T14:19:27;14.48;;;11.27;;
16612;SDS011;8419;52.358;9.752;2023-06-22T14:22:12;13.40;;;11.18;;
16612;SDS011;8419;52.358;9.752;2023-06-22T14:24:58;13.70;;;12.00;;
16612;SDS011;8419;52.358;9.752;2023-06-22T14:27:43;13.52;;;10.82;;
16612;SDS011;8419;52.358;9.752;2023-06-22T14:30:29;11.52;;;10.27;;
16612;SDS011;8419;52.358;9.752;2023-06-22T14:33:15;10.85;;;9.73;;
16612;SDS011;8419;52.358;9.752;2023-06-22T14:36:00;15.07;;;9.65;;
16612;SDS011;8419;52.358;9.752;2023-06-22T14:38:45;14.98;;;9.75;;
16612;SDS011;8419;52.358;9.752;2023-06-22T14:41:31;12.10;;;10.80;;
16612;SDS011;8419;52.358;9.752;2023-06-22T14:44:19;12.30;;;10.25;;
16612;SDS011;8419;52.358;9.752;2023-06-22T14:47:07;12.07;;;10.48;;
16612;SDS011;8419;52.358;9.752;2023-06-22T14:49:53;12.90;;;11.52;;
16612;SDS011;8419;52.358;9.752;2023-06-22T14:52:39;14.93;;;13.35;;
16612;SDS011;8419;52.358;9.752;2023-06-22T14:55:25;13.13;;;11.63;;
16612;SDS011;8419;52.358;9.752;2023-06-22T14:58:10;11.80;;;10.52;;
16612;SDS011;8419;52.358;9.752;2023-06-22T15:00:55;12.00;;;10.73;;
16612;SDS011;8419;52.358;9.752;2023-06-22T15:03:41;11.00;;;9.80;;
16612;SDS011;8419;52.358;9.752;2023-06-22T15:06:27;13.00;;;10.35;;
16612;SDS011;8419;52.358;9.752;2023-06-22T15:09:12;12.10;;;10.45;;
16612;SDS011;8419;52.358;9.752;2023-06-22T15:11:58;11.20;;;10.07;;
16612;SDS011;8419;52.358;9.752;2023-06-22T15:14:45;11.23;;;10.13;;
16612;SDS011;8419;52.358;9.752;2023-06-22T15:17:31;11.27;;;9.60;;
16612;SDS011;8419;52.358;9.752;2023-06-22T15:20:16;12.50;;;11.10;;
16612;SDS011;8419;52.358;9.752;2023-06-22T15:23:01;13.32;;;11.73;;
16612;SDS011;8419;52.358;9.752;2023-06-22T15:25:47;21.87;;;13.23;;
16612;SDS011;8419;52.358;9.752;2023-06-22T15:28:32;22.80;;;13.20;;
16612;SDS011;8419;52.358;9.752;2023-06-22T15:31:22;21.87;;;13.52;;
16612;SDS011;8419;52.358;9.752;2023-06-22T15:34:08;17.25;;;12.77;;
16612;SDS011;8419;52.358;9.752;2023-06-22T15:36:53;18.20;;;14.43;;
16612;SDS011;8419;52.358;9.752;2023-06-22T15:39:39;18.50;;;13.32;;
16612;SDS011;8419;52.358;9.752;2023-06-22T15:42:25;22.10;;;13.77;;
16612;SDS011;8419;52.358;9.752;2023-06-22T15:45:10;18.42;;;14.35;;
16612;SDS011;8419;52.358;9.752;2023-06-22T15:47:56;18.10;;;15.10;;
16612;SDS011;8419;52.358;9.752;2023-06-22T15:50:41;20.00;;;14.55;;
16612;SDS011;8419;52.358;9.752;2023-06-22T15:53:27;19.10;;;14.63;;
16612;SDS011;8419;52.358;9.752;2023-06-22T15:56:12;19.17;;;14.38;;
16612;SDS011;8419;52.358;9.752;2023-06-22T15:58:57;20.37;;;15.10;;
16612;SDS011;8419;52.358;9.752;2023-06-22T16:01:43;21.98;;;15.35;;
16612;SDS011;8419;52.358;9.752;2023-06-22T16:04:29;17.80;;;13.70;;
16612;SDS011;8419;52.358;9.752;2023-06-22T16:07:16;20.98;;;13.70;;
16612;SDS011;8419;52.358;9.752;2023-06-22T16:10:02;20.73;;;13.48;;
16612;SDS011;8419;52.358;9.752;2023-06-22T16:12:48;18.12;;;13.62;;
16612;SDS011;8419;52.358;9.752;2023-06-22T16:15:34;19.10;;;13.93;;
16612;SDS011;8419;52.358;9.752;2023-06-22T16:18:20;17.92;;;13.57;;
16612;SDS011;8419;52.358;9.752;2023-06-22T16:21:05;18.67;;;13.50;;
16612;SDS011;8419;52.358;9.752;2023-06-22T16:23:51;16.60;;;11.93;;
16612;SDS011;8419;52.358;9.752;2023-06-22T16:26:38;17.95;;;13.25;;
16612;SDS011;8419;52.358;9.752;2023-06-22T16:29:24;15.07;;;12.45;;
16612;SDS011;8419;52.358;9.752;2023-06-22T16:32:10;17.08;;;13.40;;
16612;SDS011;8419;52.358;9.752;2023-06-22T16:34:56;17.30;;;12.63;;
16612;SDS011;8419;52.358;9.752;2023-06-22T16:37:41;15.02;;;12.88;;
16612;SDS011;8419;52.358;9.752;2023-06-22T16:40:27;17.60;;;12.48;;
16612;SDS011;8419;52.358;9.752;2023-06-22T16:43:13;15.93;;;11.50;;